createdAt,value
2022-07-25T00:00:56.946Z,14.60
2022-07-25T00:03:58.054Z,13.90
2022-07-25T00:06:58.957Z,14.63
2022-07-25T00:09:59.974Z,14.50
2022-07-25T00:13:00.962Z,14.82
2022-07-25T00:16:02.319Z,13.65
2022-07-25T00:19:03.876Z,13.93
2022-07-25T00:22:05.027Z,15.35
2022-07-25T00:25:06.548Z,15.18
2022-07-25T00:28:07.614Z,14.15
2022-07-25T00:31:09.001Z,13.70
2022-07-25T00:34:10.637Z,14.55
2022-07-25T00:37:12.099Z,15.38
2022-07-25T00:40:13.916Z,14.23
2022-07-25T00:43:14.786Z,15.43
2022-07-25T00:46:19.049Z,13.68
2022-07-25T00:49:20.913Z,14.80
2022-07-25T00:52:24.645Z,15.00
2022-07-25T00:55:27.022Z,14.10
2022-07-25T00:58:28.067Z,14.65
2022-07-25T01:01:29.295Z,14.73
2022-07-25T01:04:30.139Z,14.95
2022-07-25T01:07:31.688Z,15.05
2022-07-25T01:10:34.564Z,15.95
2022-07-25T01:13:35.848Z,15.57
2022-07-25T01:16:37.153Z,15.05
2022-07-25T01:19:38.020Z,15.05
2022-07-25T01:22:38.721Z,15.32
2022-07-25T01:25:39.977Z,14.70
2022-07-25T01:28:41.467Z,14.80
2022-07-25T01:31:42.301Z,14.80
2022-07-25T01:34:43.197Z,13.95
2022-07-25T01:37:45.943Z,14.60
2022-07-25T01:40:47.193Z,14.13
2022-07-25T01:43:48.072Z,13.70
2022-07-25T01:46:49.489Z,14.30
2022-07-25T01:49:51.193Z,13.50
2022-07-25T01:52:52.308Z,14.50
2022-07-25T01:55:53.761Z,14.27
2022-07-25T01:58:55.886Z,14.27
2022-07-25T02:01:57.091Z,13.02
2022-07-25T02:04:58.173Z,13.55
2022-07-25T02:07:59.362Z,14.30
2022-07-25T02:11:00.988Z,13.35
2022-07-25T02:14:03.803Z,14.18
2022-07-25T02:17:05.152Z,13.70
2022-07-25T02:20:07.145Z,14.25
2022-07-25T02:23:08.749Z,13.73
2022-07-25T02:26:09.857Z,14.00
2022-07-25T02:29:10.814Z,14.25
2022-07-25T02:32:11.793Z,13.80
2022-07-25T02:35:13.558Z,13.73
2022-07-25T02:38:19.837Z,14.10
2022-07-25T02:41:20.636Z,14.20
2022-07-25T02:44:21.789Z,14.95
2022-07-25T02:47:23.363Z,14.50
2022-07-25T02:50:25.044Z,14.00
2022-07-25T02:53:47.198Z,14.57
2022-07-25T02:56:47.036Z,14.98
2022-07-25T02:59:47.967Z,14.10
2022-07-25T03:02:49.830Z,15.68
2022-07-25T03:05:51.332Z,13.98
2022-07-25T03:08:52.133Z,14.75
2022-07-25T03:11:54.498Z,14.52
2022-07-25T03:14:56.043Z,16.05
2022-07-25T03:17:57.288Z,15.57
2022-07-25T03:20:58.202Z,15.43
2022-07-25T03:23:59.051Z,15.35
2022-07-25T03:27:00.328Z,15.32
2022-07-25T03:30:01.520Z,16.05
2022-07-25T03:33:02.227Z,16.30
2022-07-25T03:36:04.286Z,15.70
2022-07-25T03:39:05.802Z,15.85
2022-07-25T03:42:06.913Z,15.80
2022-07-25T03:45:08.693Z,16.48
2022-07-25T03:48:09.834Z,16.48
2022-07-25T03:51:11.225Z,16.30
2022-07-25T03:54:14.714Z,15.55
2022-07-25T03:57:15.301Z,16.75
2022-07-25T04:00:16.582Z,17.63
2022-07-25T04:03:17.663Z,16.00
2022-07-25T04:06:18.930Z,16.90
2022-07-25T04:09:19.854Z,17.05
2022-07-25T04:12:20.790Z,17.20
2022-07-25T04:15:21.773Z,18.23
2022-07-25T04:18:22.475Z,18.05
2022-07-25T04:24:31.527Z,17.27
2022-07-25T04:27:32.477Z,20.08
2022-07-25T04:30:33.719Z,17.95
2022-07-25T04:33:41.302Z,19.75
2022-07-25T04:36:42.566Z,18.58
2022-07-25T04:39:43.441Z,18.13
2022-07-25T04:42:44.329Z,18.60
2022-07-25T04:45:45.206Z,18.10
2022-07-25T04:48:46.468Z,20.30
2022-07-25T04:51:49.333Z,17.88
2022-07-25T04:54:50.225Z,18.48
2022-07-25T04:57:51.543Z,18.38
2022-07-25T05:00:52.552Z,18.17
2022-07-25T05:03:53.741Z,17.05
2022-07-25T05:06:54.948Z,17.55
2022-07-25T05:09:56.367Z,18.70
2022-07-25T05:12:57.601Z,18.73
2022-07-25T05:15:58.531Z,17.63
2022-07-25T05:18:59.433Z,18.27
2022-07-25T05:22:00.601Z,17.20
2022-07-25T05:25:04.784Z,17.13
2022-07-25T05:28:05.761Z,17.63
2022-07-25T05:31:06.820Z,18.27
2022-07-25T05:34:09.295Z,17.95
2022-07-25T05:37:11.169Z,18.83
2022-07-25T05:40:13.323Z,19.08
2022-07-25T05:43:14.493Z,18.13
2022-07-25T05:46:19.343Z,19.08
2022-07-25T05:49:20.949Z,18.40
2022-07-25T05:52:22.888Z,18.40
2022-07-25T05:55:24.111Z,18.92
2022-07-25T05:58:29.621Z,18.77
2022-07-25T06:01:30.876Z,19.25
2022-07-25T06:04:32.078Z,18.52
2022-07-25T06:07:33.428Z,17.63
2022-07-25T06:10:34.672Z,17.63
2022-07-25T06:13:38.461Z,17.85
2022-07-25T06:16:39.429Z,17.67
2022-07-25T06:19:40.640Z,18.10
2022-07-25T06:22:41.510Z,16.98
2022-07-25T06:25:42.480Z,17.65
2022-07-25T06:28:43.352Z,17.17
2022-07-25T06:31:46.378Z,17.90
2022-07-25T06:34:48.168Z,18.05
2022-07-25T06:37:49.566Z,17.67
2022-07-25T06:40:50.807Z,16.45
2022-07-25T06:43:52.023Z,16.63
2022-07-25T06:46:52.779Z,17.02
2022-07-25T06:49:53.913Z,16.77
2022-07-25T06:52:55.247Z,17.83
2022-07-25T06:55:56.067Z,16.65
2022-07-25T06:58:57.179Z,17.92
2022-07-25T07:01:58.316Z,16.15
2022-07-25T07:04:58.951Z,16.63
2022-07-25T07:08:01.351Z,16.63
2022-07-25T07:11:02.224Z,17.15
2022-07-25T07:14:05.075Z,18.08
2022-07-25T07:17:06.322Z,16.98
2022-07-25T07:20:08.754Z,15.68
2022-07-25T07:23:10.454Z,16.15
2022-07-25T07:26:11.791Z,15.25
2022-07-25T07:29:12.677Z,15.60
2022-07-25T07:32:13.982Z,15.00
2022-07-25T07:35:16.763Z,15.77
2022-07-25T07:38:18.449Z,14.18
2022-07-25T07:41:19.680Z,13.98
2022-07-25T07:44:20.705Z,14.18
2022-07-25T07:47:21.898Z,15.35
2022-07-25T07:50:27.234Z,13.73
2022-07-25T07:53:47.193Z,13.95
2022-07-25T07:56:48.481Z,13.70
2022-07-25T07:59:49.247Z,13.95
2022-07-25T08:02:53.289Z,13.45
2022-07-25T08:05:54.589Z,14.02
2022-07-25T08:08:56.026Z,14.85
2022-07-25T08:11:57.176Z,13.65
2022-07-25T08:14:58.485Z,14.10
2022-07-25T08:18:00.551Z,14.13
2022-07-25T08:21:04.290Z,14.77
2022-07-25T08:24:06.938Z,13.52
2022-07-25T08:27:08.145Z,13.68
2022-07-25T08:30:10.956Z,13.75
2022-07-25T08:33:16.455Z,12.77
2022-07-25T08:36:17.717Z,13.75
2022-07-25T08:39:18.573Z,14.43
2022-07-25T08:42:21.260Z,14.18
2022-07-25T08:45:23.422Z,14.25
2022-07-25T08:48:27.052Z,13.00
2022-07-25T08:51:28.933Z,13.00
2022-07-25T08:54:31.889Z,15.10
2022-07-25T08:57:34.237Z,13.98
2022-07-25T09:00:35.151Z,15.32
2022-07-25T09:03:36.554Z,13.88
2022-07-25T09:06:37.789Z,13.32
2022-07-25T09:09:39.765Z,12.85
2022-07-25T09:12:42.077Z,14.95
2022-07-25T09:15:52.752Z,14.40
2022-07-25T09:18:53.901Z,15.57
2022-07-25T09:22:10.263Z,14.10
2022-07-25T09:28:23.912Z,13.75
2022-07-25T09:31:35.090Z,11.88
2022-07-25T09:34:39.391Z,13.07
2022-07-25T09:37:40.456Z,14.10
2022-07-25T09:40:42.755Z,12.98
2022-07-25T09:43:44.793Z,11.10
2022-07-25T09:46:46.062Z,10.90
2022-07-25T09:49:47.828Z,10.05
2022-07-25T09:52:52.870Z,10.70
2022-07-25T09:55:55.326Z,9.73
2022-07-25T09:58:56.651Z,10.13
2022-07-25T10:02:25.990Z,10.00
2022-07-25T10:05:45.415Z,10.02
2022-07-25T10:08:49.136Z,9.55
2022-07-25T10:12:11.719Z,8.43
2022-07-25T10:15:14.463Z,7.88
2022-07-25T10:18:19.814Z,7.95
2022-07-25T10:21:27.043Z,7.95
2022-07-25T10:24:39.099Z,7.63
2022-07-25T10:28:00.132Z,7.22
2022-07-25T10:31:01.166Z,8.20
2022-07-25T10:34:07.504Z,7.95
2022-07-25T10:40:24.568Z,8.65
2022-07-25T10:43:28.210Z,7.55
2022-07-25T10:46:31.167Z,7.30
2022-07-25T10:49:50.127Z,8.57
2022-07-25T10:53:01.374Z,7.70
2022-07-25T10:56:23.386Z,6.28
2022-07-25T10:59:39.531Z,7.05
2022-07-25T11:02:41.512Z,7.05
2022-07-25T11:05:49.276Z,6.85
2022-07-25T11:08:50.124Z,8.95
2022-07-25T11:11:55.345Z,7.35
2022-07-25T11:15:08.323Z,7.25
2022-07-25T11:18:09.481Z,7.38
2022-07-25T11:21:10.814Z,6.93
2022-07-25T11:24:11.814Z,7.15
2022-07-25T11:27:25.386Z,7.00
2022-07-25T11:30:29.818Z,7.40
2022-07-25T11:33:31.413Z,9.07
2022-07-25T11:36:32.512Z,7.65
2022-07-25T11:39:37.773Z,7.68
2022-07-25T11:42:52.260Z,6.90
2022-07-25T11:46:08.971Z,8.38
2022-07-25T11:49:10.915Z,6.60
2022-07-25T11:52:22.346Z,6.15
2022-07-25T11:55:30.623Z,6.45
2022-07-25T11:58:31.966Z,6.30
2022-07-25T12:01:45.444Z,7.03
2022-07-25T12:04:55.778Z,5.93
2022-07-25T12:07:56.759Z,6.07
2022-07-25T12:10:57.748Z,6.20
2022-07-25T12:14:05.126Z,6.22
2022-07-25T12:17:06.236Z,5.53
2022-07-25T12:20:21.519Z,6.25
2022-07-25T12:23:22.655Z,5.15
2022-07-25T12:26:23.750Z,7.45
2022-07-25T12:29:24.732Z,5.60
2022-07-25T12:32:25.614Z,5.30
2022-07-25T12:35:27.211Z,4.90
2022-07-25T12:38:29.115Z,4.65
2022-07-25T12:41:30.139Z,5.03
2022-07-25T12:44:31.473Z,5.00
2022-07-25T12:47:32.805Z,5.40
2022-07-25T12:50:33.843Z,5.18
2022-07-25T12:53:37.814Z,6.10
2022-07-25T12:56:41.686Z,4.53
2022-07-25T12:59:43.426Z,5.35
2022-07-25T13:02:44.646Z,4.72
2022-07-25T13:05:45.660Z,4.47
2022-07-25T13:08:47.263Z,4.35
2022-07-25T13:11:49.040Z,4.47
2022-07-25T13:14:50.610Z,4.40
2022-07-25T13:17:51.731Z,4.85
2022-07-25T13:20:53.042Z,4.78
2022-07-25T13:23:54.114Z,4.85
2022-07-25T13:26:55.251Z,4.82
2022-07-25T13:29:56.316Z,4.78
2022-07-25T13:32:57.772Z,5.30
2022-07-25T13:35:58.706Z,5.68
2022-07-25T13:38:59.739Z,5.65
2022-07-25T13:42:01.126Z,5.65
2022-07-25T13:45:02.458Z,5.35
2022-07-25T13:48:28.579Z,5.53
2022-07-25T13:51:26.847Z,5.18
2022-07-25T13:54:27.995Z,5.38
2022-07-25T13:57:28.793Z,5.70
2022-07-25T14:00:30.175Z,5.20
2022-07-25T14:03:30.880Z,5.97
2022-07-25T14:06:32.026Z,5.97
2022-07-25T14:09:32.854Z,5.88
2022-07-25T14:12:34.596Z,6.38
2022-07-25T14:15:36.024Z,5.90
2022-07-25T14:18:37.171Z,6.47
2022-07-25T14:21:38.381Z,5.70
2022-07-25T14:24:39.313Z,6.13
2022-07-25T14:27:40.647Z,7.30
2022-07-25T14:30:41.713Z,5.30
2022-07-25T14:33:42.975Z,5.88
2022-07-25T14:36:44.917Z,5.25
2022-07-25T14:39:46.615Z,5.93
2022-07-25T14:42:47.485Z,6.30
2022-07-25T14:45:48.494Z,5.72
2022-07-25T14:48:50.037Z,5.70
2022-07-25T14:51:51.241Z,6.60
2022-07-25T14:54:52.261Z,6.40
2022-07-25T14:57:53.101Z,6.50
2022-07-25T15:00:54.474Z,6.68
2022-07-25T15:03:57.219Z,7.18
2022-07-25T15:06:58.478Z,7.10
2022-07-25T15:09:59.949Z,6.32
2022-07-25T15:13:29.241Z,6.47
2022-07-25T15:16:22.134Z,6.32
2022-07-25T15:19:23.262Z,5.80
2022-07-25T15:22:24.602Z,5.93
2022-07-25T15:26:00.000Z,5.93
2022-07-25T15:28:47.325Z,5.70
2022-07-25T15:31:49.420Z,5.68
2022-07-25T15:34:50.272Z,5.97
2022-07-25T15:37:51.162Z,5.70
2022-07-25T15:40:52.154Z,5.47
2022-07-25T15:43:53.503Z,5.97
2022-07-25T15:46:54.503Z,6.15
2022-07-25T15:49:55.933Z,6.43
2022-07-25T15:52:57.283Z,6.90
2022-07-25T15:55:58.243Z,6.45
2022-07-25T15:58:59.581Z,6.45
2022-07-25T16:02:00.900Z,6.20
2022-07-25T16:05:03.555Z,7.10
2022-07-25T16:08:05.569Z,6.85
2022-07-25T16:11:06.797Z,7.25
2022-07-25T16:14:09.145Z,6.97
2022-07-25T16:17:10.105Z,7.45
2022-07-25T16:20:11.974Z,7.70
2022-07-25T16:23:13.902Z,7.32
2022-07-25T16:26:15.296Z,6.47
2022-07-25T16:29:16.617Z,6.95
2022-07-25T16:32:18.971Z,6.70
2022-07-25T16:35:20.072Z,7.10
2022-07-25T16:38:22.388Z,7.03
2022-07-25T16:41:23.381Z,7.15
2022-07-25T16:44:24.652Z,7.10
2022-07-25T16:47:26.199Z,7.43
2022-07-25T16:50:27.154Z,7.25
2022-07-25T16:53:28.275Z,7.57
2022-07-25T16:56:29.706Z,6.90
2022-07-25T16:59:30.585Z,7.15
2022-07-25T17:02:32.414Z,6.72
2022-07-25T17:05:33.511Z,5.97
2022-07-25T17:08:35.813Z,6.53
2022-07-25T17:11:37.149Z,6.07
2022-07-25T17:14:38.126Z,6.90
2022-07-25T17:17:39.133Z,5.90
2022-07-25T17:20:40.678Z,6.32
2022-07-25T17:23:41.732Z,6.68
2022-07-25T17:26:43.076Z,7.35
2022-07-25T17:29:43.821Z,7.00
2022-07-25T17:32:45.165Z,6.95
2022-07-25T17:35:46.490Z,6.40
2022-07-25T17:38:47.417Z,6.63
2022-07-25T17:41:48.919Z,5.82
2022-07-25T17:44:52.058Z,6.22
2022-07-25T17:47:53.390Z,6.18
2022-07-25T17:50:54.442Z,7.43
2022-07-25T17:53:55.685Z,6.18
2022-07-25T17:56:57.643Z,6.57
2022-07-25T17:59:58.390Z,6.13
2022-07-25T18:02:59.889Z,6.45
2022-07-25T18:06:00.749Z,6.32
2022-07-25T18:09:01.963Z,6.32
2022-07-25T18:12:03.870Z,6.28
2022-07-25T18:15:06.761Z,6.22
2022-07-25T18:18:10.538Z,5.88
2022-07-25T18:21:13.008Z,6.13
2022-07-25T18:24:14.285Z,5.90
2022-07-25T18:27:15.104Z,6.15
2022-07-25T18:30:17.055Z,5.63
2022-07-25T18:33:19.309Z,6.18
2022-07-25T18:36:20.501Z,6.22
2022-07-25T18:39:22.816Z,6.05
2022-07-25T18:42:29.541Z,5.72
2022-07-25T18:45:31.361Z,6.47
2022-07-25T18:48:32.480Z,6.60
2022-07-25T18:51:33.413Z,6.15
2022-07-25T18:54:34.110Z,5.93
2022-07-25T18:57:35.296Z,6.70
2022-07-25T19:00:36.254Z,6.80
2022-07-25T19:03:37.774Z,5.65
2022-07-25T19:06:39.156Z,6.65
2022-07-25T19:09:40.215Z,6.88
2022-07-25T19:12:41.650Z,6.15
2022-07-25T19:15:42.550Z,6.45
2022-07-25T19:18:43.952Z,5.80
2022-07-25T19:21:46.072Z,6.22
2022-07-25T19:24:48.087Z,6.60
2022-07-25T19:27:49.173Z,6.88
2022-07-25T19:30:50.609Z,6.50
2022-07-25T19:33:51.792Z,6.28
2022-07-25T19:36:55.687Z,5.95
2022-07-25T19:39:56.870Z,5.70
2022-07-25T19:42:58.745Z,6.70
2022-07-25T19:46:00.083Z,6.15
2022-07-25T19:49:01.893Z,5.88
2022-07-25T19:52:03.441Z,6.13
2022-07-25T19:55:05.910Z,6.13
2022-07-25T19:58:08.683Z,5.68
2022-07-25T20:01:09.987Z,5.57
2022-07-25T20:04:11.415Z,5.70
2022-07-25T20:07:12.681Z,5.95
2022-07-25T20:10:13.463Z,5.43
2022-07-25T20:13:19.049Z,5.68
2022-07-25T20:16:20.452Z,5.55
2022-07-25T20:19:21.797Z,5.38
2022-07-25T20:22:23.165Z,5.63
2022-07-25T20:25:23.920Z,5.72
2022-07-25T20:28:24.859Z,5.45
2022-07-25T20:31:26.142Z,5.82
2022-07-25T20:34:27.088Z,5.72
2022-07-25T20:37:28.282Z,5.78
2022-07-25T20:40:30.024Z,5.68
2022-07-25T20:43:32.872Z,5.75
2022-07-25T20:46:36.080Z,5.15
2022-07-25T20:49:37.341Z,5.03
2022-07-25T20:52:39.167Z,5.38
2022-07-25T20:55:40.347Z,5.47
2022-07-25T20:58:41.294Z,5.78
2022-07-25T21:01:42.794Z,5.78
2022-07-25T21:04:44.994Z,5.70
2022-07-25T21:07:46.537Z,6.10
2022-07-25T21:10:47.353Z,5.40
2022-07-25T21:13:48.287Z,5.57
2022-07-25T21:16:49.593Z,5.35
2022-07-25T21:19:50.456Z,5.50
2022-07-25T21:22:51.398Z,5.03
2022-07-25T21:25:52.502Z,5.22
2022-07-25T21:28:53.884Z,6.10
2022-07-25T21:31:54.711Z,5.60
2022-07-25T21:34:55.878Z,5.90
2022-07-25T21:37:58.781Z,5.53
2022-07-25T21:40:59.914Z,5.80
2022-07-25T21:44:01.345Z,5.55
2022-07-25T21:47:02.475Z,5.93
2022-07-25T21:50:24.463Z,5.43
2022-07-25T21:53:26.370Z,5.90
2022-07-25T21:56:27.707Z,5.38
2022-07-25T21:59:28.943Z,5.30
2022-07-25T22:02:29.960Z,5.22
2022-07-25T22:05:31.514Z,6.07
2022-07-25T22:08:32.611Z,5.15
2022-07-25T22:11:42.947Z,5.82
2022-07-25T22:14:47.801Z,5.60
2022-07-25T22:17:50.084Z,5.38
2022-07-25T22:20:51.253Z,6.05
2022-07-25T22:23:52.622Z,6.05
2022-07-25T22:26:54.142Z,5.95
2022-07-25T22:29:55.064Z,5.70
2022-07-25T22:32:56.583Z,6.10
2022-07-25T22:35:57.788Z,5.90
2022-07-25T22:38:58.985Z,7.38
2022-07-25T22:42:00.364Z,6.22
2022-07-25T22:45:01.900Z,6.60
2022-07-25T22:48:02.942Z,7.03
2022-07-25T22:51:04.399Z,6.53
2022-07-25T22:54:05.750Z,5.90
2022-07-25T22:57:07.123Z,6.47
2022-07-25T23:00:12.006Z,7.03
2022-07-25T23:03:13.311Z,7.00
2022-07-25T23:06:14.649Z,6.75
2022-07-25T23:09:15.782Z,6.95
2022-07-25T23:12:16.866Z,6.97
2022-07-25T23:15:18.087Z,6.13
2022-07-25T23:18:19.803Z,5.82
2022-07-25T23:21:21.020Z,6.32
2022-07-25T23:24:21.979Z,6.70
2022-07-25T23:27:25.410Z,6.57
2022-07-25T23:30:26.499Z,6.60
2022-07-25T23:33:27.714Z,7.30
2022-07-25T23:36:30.088Z,6.53
2022-07-25T23:39:32.003Z,5.90
2022-07-25T23:42:33.001Z,6.80
2022-07-25T23:45:35.464Z,7.25
2022-07-25T23:48:36.781Z,6.57
2022-07-25T23:51:38.789Z,6.45
2022-07-25T23:54:41.016Z,7.20
2022-07-25T23:57:41.811Z,7.15
